createdAt,value
2019-02-10T00:01:45.469Z,6.40
2019-02-10T00:04:18.846Z,6.41
2019-02-10T00:06:52.211Z,6.43
2019-02-10T00:09:25.479Z,6.31
2019-02-10T00:11:58.786Z,6.21
2019-02-10T00:14:32.061Z,6.17
2019-02-10T00:17:05.839Z,6.14
2019-02-10T00:19:39.167Z,6.11
2019-02-10T00:22:12.426Z,6.28
2019-02-10T00:24:45.709Z,6.36
2019-02-10T00:27:19.008Z,6.45
2019-02-10T00:29:52.293Z,6.49
2019-02-10T00:32:25.585Z,6.55
2019-02-10T00:34:58.872Z,6.50
2019-02-10T00:37:32.160Z,6.53
2019-02-10T00:40:06.197Z,6.58
2019-02-10T00:42:39.793Z,6.46
2019-02-10T00:45:13.045Z,6.60
2019-02-10T00:47:46.347Z,6.66
2019-02-10T00:50:20.622Z,6.60
2019-02-10T00:52:53.915Z,6.64
2019-02-10T00:55:27.275Z,6.66
2019-02-10T00:58:00.570Z,6.65
2019-02-10T01:00:33.853Z,6.58
2019-02-10T01:03:08.625Z,6.63
2019-02-10T01:05:41.964Z,6.54
2019-02-10T01:08:15.260Z,6.61
2019-02-10T01:10:48.613Z,6.65
2019-02-10T01:13:21.907Z,6.64
2019-02-10T01:15:55.180Z,6.71
2019-02-10T01:18:29.726Z,6.76
2019-02-10T01:21:04.735Z,6.76
2019-02-10T01:23:38.014Z,6.75
2019-02-10T01:26:11.291Z,6.77
2019-02-10T01:28:44.576Z,6.76
2019-02-10T01:31:17.840Z,6.84
2019-02-10T01:33:51.147Z,6.87
2019-02-10T01:36:24.419Z,6.86
2019-02-10T01:38:57.690Z,6.97
2019-02-10T01:41:33.140Z,6.93
2019-02-10T01:44:06.448Z,6.96
2019-02-10T01:46:41.359Z,7.03
2019-02-10T01:49:14.695Z,7.14
2019-02-10T01:51:47.921Z,7.10
2019-02-10T01:54:21.363Z,7.17
2019-02-10T01:56:54.635Z,7.25
2019-02-10T01:59:27.912Z,7.42
2019-02-10T02:02:01.466Z,7.43
2019-02-10T02:04:34.737Z,7.57
2019-02-10T02:07:08.016Z,7.46
2019-02-10T02:09:42.849Z,7.33
2019-02-10T02:12:16.214Z,7.33
2019-02-10T02:14:49.512Z,7.38
2019-02-10T02:17:22.794Z,7.42
2019-02-10T02:19:56.078Z,7.47
2019-02-10T02:22:29.344Z,7.44
2019-02-10T02:25:02.677Z,7.38
2019-02-10T02:27:36.063Z,7.46
2019-02-10T02:30:13.265Z,7.53
2019-02-10T02:32:47.733Z,7.48
2019-02-10T02:35:21.030Z,7.48
2019-02-10T02:37:54.291Z,7.42
2019-02-10T02:40:27.586Z,7.38
2019-02-10T02:43:01.924Z,7.62
2019-02-10T02:45:35.216Z,7.70
2019-02-10T02:48:08.494Z,7.64
2019-02-10T02:50:43.334Z,7.72
2019-02-10T02:53:16.596Z,7.71
2019-02-10T02:55:49.935Z,7.76
2019-02-10T02:58:23.218Z,7.84
2019-02-10T03:00:56.544Z,7.99
2019-02-10T03:03:29.815Z,8.08
2019-02-10T03:06:03.076Z,8.13
2019-02-10T03:08:36.376Z,8.18
2019-02-10T03:11:09.637Z,8.17
2019-02-10T03:13:42.921Z,8.13
2019-02-10T03:16:16.198Z,8.16
2019-02-10T03:18:53.186Z,8.11
2019-02-10T03:21:24.489Z,8.11
2019-02-10T03:23:57.803Z,8.13
2019-02-10T03:26:31.069Z,8.17
2019-02-10T03:29:04.369Z,8.08
2019-02-10T03:31:37.648Z,8.08
2019-02-10T03:34:10.931Z,8.12
2019-02-10T03:36:44.193Z,8.16
2019-02-10T03:39:17.484Z,8.22
2019-02-10T03:41:50.771Z,8.13
2019-02-10T03:44:24.061Z,8.22
2019-02-10T03:46:57.315Z,8.22
2019-02-10T03:49:30.658Z,8.21
2019-02-10T03:52:03.961Z,8.18
2019-02-10T03:54:37.301Z,8.17
2019-02-10T03:57:10.569Z,8.01
2019-02-10T03:59:43.876Z,8.04
2019-02-10T04:02:17.150Z,8.00
2019-02-10T04:04:50.438Z,8.16
2019-02-10T04:07:23.694Z,8.13
2019-02-10T04:09:57.813Z,8.11
2019-02-10T04:12:31.059Z,8.13
2019-02-10T04:15:05.873Z,8.23
2019-02-10T04:17:39.143Z,8.17
2019-02-10T04:20:12.441Z,8.25
2019-02-10T04:22:45.707Z,8.29
2019-02-10T04:25:18.997Z,8.21
2019-02-10T04:27:52.275Z,8.13
2019-02-10T04:30:25.558Z,8.21
2019-02-10T04:32:58.822Z,8.24
2019-02-10T04:35:32.121Z,8.22
2019-02-10T04:38:05.399Z,8.18
2019-02-10T04:40:38.674Z,8.24
2019-02-10T04:43:11.930Z,8.30
2019-02-10T04:45:45.223Z,8.34
2019-02-10T04:48:18.484Z,8.29
2019-02-10T04:50:51.786Z,8.36
2019-02-10T04:53:25.077Z,8.30
2019-02-10T04:56:14.942Z,8.27
2019-02-10T04:58:48.195Z,8.18
2019-02-10T05:01:21.472Z,8.16
2019-02-10T05:03:54.750Z,8.15
2019-02-10T05:06:28.052Z,8.06
2019-02-10T05:09:01.311Z,8.12
2019-02-10T05:11:34.633Z,8.13
2019-02-10T05:14:07.917Z,8.11
2019-02-10T05:16:41.190Z,8.08
2019-02-10T05:19:14.447Z,8.16
2019-02-10T05:21:47.726Z,8.26
2019-02-10T05:24:20.983Z,8.19
2019-02-10T05:26:54.288Z,8.21
2019-02-10T05:29:27.544Z,8.24
2019-02-10T05:32:00.823Z,8.40
2019-02-10T05:34:34.073Z,8.42
2019-02-10T05:37:07.358Z,8.48
2019-02-10T05:39:40.642Z,8.56
2019-02-10T05:42:13.922Z,8.55
2019-02-10T05:44:47.197Z,8.58
2019-02-10T05:47:20.487Z,8.64
2019-02-10T05:49:53.747Z,8.60
2019-02-10T05:52:27.031Z,8.65
2019-02-10T05:55:01.067Z,8.69
2019-02-10T05:57:34.353Z,8.76
2019-02-10T06:00:08.374Z,8.72
2019-02-10T06:02:41.677Z,8.82
2019-02-10T06:05:20.635Z,8.96
2019-02-10T06:07:53.889Z,8.90
2019-02-10T06:10:27.156Z,8.94
2019-02-10T06:13:00.425Z,8.94
2019-02-10T06:15:33.720Z,8.96
2019-02-10T06:18:06.988Z,8.91
2019-02-10T06:20:40.286Z,8.98
2019-02-10T06:23:13.566Z,8.91
2019-02-10T06:25:46.857Z,8.93
2019-02-10T06:28:20.115Z,8.99
2019-02-10T06:30:53.411Z,8.99
2019-02-10T06:33:28.436Z,9.00
2019-02-10T06:36:01.758Z,9.05
2019-02-10T06:38:35.023Z,9.10
2019-02-10T06:41:08.310Z,9.08
2019-02-10T06:43:41.596Z,9.06
2019-02-10T06:46:14.868Z,9.20
2019-02-10T06:48:48.129Z,9.18
2019-02-10T06:51:21.410Z,9.15
2019-02-10T06:53:54.674Z,9.43
2019-02-10T06:56:27.998Z,9.31
2019-02-10T06:59:01.272Z,9.16
2019-02-10T07:01:36.194Z,9.28
2019-02-10T07:04:12.486Z,9.21
2019-02-10T07:06:45.763Z,9.29
2019-02-10T07:09:19.046Z,9.38
2019-02-10T07:11:52.348Z,9.38
2019-02-10T07:14:28.624Z,9.42
2019-02-10T07:17:10.777Z,9.43
2019-02-10T07:20:20.732Z,9.49
2019-02-10T07:22:55.562Z,9.48
2019-02-10T07:25:43.519Z,9.55
2019-02-10T07:28:19.973Z,9.59
2019-02-10T07:31:00.887Z,9.71
2019-02-10T07:34:06.084Z,9.66
2019-02-10T07:36:48.664Z,9.67
2019-02-10T07:39:27.629Z,9.68
2019-02-10T07:42:12.856Z,9.85
2019-02-10T07:44:55.244Z,9.96
2019-02-10T07:47:37.209Z,9.92
2019-02-10T07:50:13.657Z,9.95
2019-02-10T07:52:55.487Z,10.09
2019-02-10T07:55:47.171Z,10.10
2019-02-10T07:58:29.535Z,10.04
2019-02-10T08:01:21.187Z,10.16
2019-02-10T08:04:12.642Z,10.22
2019-02-10T08:06:55.064Z,10.19
2019-02-10T08:10:03.298Z,10.28
2019-02-10T08:12:51.869Z,10.28
2019-02-10T08:15:28.326Z,10.18
2019-02-10T08:18:10.520Z,10.11
2019-02-10T08:20:55.940Z,10.15
2019-02-10T08:23:44.496Z,10.14
2019-02-10T08:26:51.418Z,10.02
2019-02-10T08:29:47.279Z,9.94
2019-02-10T08:32:24.282Z,9.84
2019-02-10T08:35:23.079Z,9.70
2019-02-10T08:38:14.435Z,9.67
2019-02-10T08:41:05.999Z,9.50
2019-02-10T08:44:00.032Z,9.41
2019-02-10T08:46:41.963Z,9.33
2019-02-10T08:49:18.395Z,9.35
2019-02-10T08:52:18.977Z,9.34
2019-02-10T08:54:52.331Z,9.30
2019-02-10T08:57:25.630Z,9.28
2019-02-10T08:59:58.895Z,9.27
2019-02-10T09:02:32.187Z,9.29
2019-02-10T09:05:06.714Z,9.33
2019-02-10T09:07:40.018Z,9.35
2019-02-10T09:10:13.754Z,9.41
2019-02-10T09:12:47.078Z,9.39
2019-02-10T09:15:20.351Z,9.32
2019-02-10T09:17:53.655Z,9.29
2019-02-10T09:20:26.984Z,9.32
2019-02-10T09:23:00.280Z,9.34
2019-02-10T09:25:33.554Z,9.40
2019-02-10T09:28:06.868Z,9.53
2019-02-10T09:30:40.146Z,9.55
2019-02-10T09:33:13.458Z,9.61
2019-02-10T09:35:46.733Z,9.68
2019-02-10T09:38:20.035Z,9.73
2019-02-10T09:40:53.322Z,9.88
2019-02-10T09:43:26.652Z,10.02
2019-02-10T09:45:59.935Z,9.94
2019-02-10T09:48:33.237Z,10.25
2019-02-10T09:51:06.548Z,10.25
2019-02-10T09:53:39.887Z,10.28
2019-02-10T09:56:13.182Z,10.34
2019-02-10T09:58:46.550Z,10.47
2019-02-10T10:01:19.896Z,10.51
2019-02-10T10:03:53.190Z,10.54
2019-02-10T10:06:26.460Z,10.61
2019-02-10T10:08:59.790Z,10.72
2019-02-10T10:11:33.124Z,10.69
2019-02-10T10:14:06.424Z,10.64
2019-02-10T10:16:39.751Z,10.76
2019-02-10T10:19:13.059Z,10.98
2019-02-10T10:21:46.361Z,11.11
2019-02-10T10:24:19.640Z,11.13
2019-02-10T10:26:53.009Z,11.19
2019-02-10T10:29:26.319Z,11.35
2019-02-10T10:31:59.602Z,11.51
2019-02-10T10:34:35.971Z,11.46
2019-02-10T10:37:09.283Z,11.58
2019-02-10T10:39:42.579Z,11.53
2019-02-10T10:42:15.878Z,11.42
2019-02-10T10:44:49.187Z,11.46
2019-02-10T10:47:22.459Z,11.49
2019-02-10T10:49:55.741Z,11.62
2019-02-10T10:52:29.068Z,11.56
2019-02-10T10:55:02.362Z,11.58
2019-02-10T10:57:35.643Z,11.55
2019-02-10T11:00:15.735Z,11.62
2019-02-10T11:02:49.150Z,11.55
2019-02-10T11:05:22.459Z,11.62
2019-02-10T11:07:55.751Z,11.51
2019-02-10T11:10:29.100Z,11.29
2019-02-10T11:13:02.462Z,11.28
2019-02-10T11:15:35.758Z,11.34
2019-02-10T11:18:09.055Z,11.32
2019-02-10T11:20:42.446Z,11.36
2019-02-10T11:23:15.725Z,11.31
2019-02-10T11:25:49.049Z,11.24
2019-02-10T11:28:22.332Z,11.29
2019-02-10T11:30:55.749Z,11.24
2019-02-10T11:33:29.030Z,11.25
2019-02-10T11:36:02.379Z,11.24
2019-02-10T11:38:35.646Z,11.23
2019-02-10T11:41:09.048Z,11.18
2019-02-10T11:43:42.290Z,11.18
2019-02-10T11:46:15.591Z,11.21
2019-02-10T11:48:48.882Z,11.23
2019-02-10T11:51:22.189Z,11.17
2019-02-10T11:54:03.260Z,10.97
2019-02-10T11:56:36.561Z,10.84
2019-02-10T11:59:09.865Z,10.72
2019-02-10T12:01:43.939Z,10.64
2019-02-10T12:04:17.233Z,10.48
2019-02-10T12:06:50.660Z,10.43
2019-02-10T12:09:23.951Z,10.28
2019-02-10T12:11:58.894Z,10.19
2019-02-10T12:14:32.696Z,10.10
2019-02-10T12:17:06.126Z,9.89
2019-02-10T12:19:39.424Z,9.79
2019-02-10T12:22:12.735Z,9.64
2019-02-10T12:24:46.023Z,9.65
2019-02-10T12:27:19.369Z,9.72
2019-02-10T12:29:53.866Z,9.65
2019-02-10T12:32:27.202Z,9.57
2019-02-10T12:35:00.467Z,9.61
2019-02-10T12:37:33.764Z,9.62
2019-02-10T12:40:08.760Z,9.59
2019-02-10T12:42:42.160Z,9.50
2019-02-10T12:45:15.563Z,9.60
2019-02-10T12:47:48.861Z,9.49
2019-02-10T12:50:22.177Z,9.65
2019-02-10T12:52:55.477Z,9.76
2019-02-10T12:55:29.106Z,9.77
2019-02-10T12:58:02.422Z,9.79
2019-02-10T13:00:35.716Z,9.77
2019-02-10T13:03:10.263Z,9.83
2019-02-10T13:05:43.556Z,9.93
2019-02-10T13:08:17.372Z,9.98
2019-02-10T13:10:51.701Z,9.99
2019-02-10T13:13:24.996Z,10.10
2019-02-10T13:15:59.404Z,10.02
2019-02-10T13:18:32.793Z,10.08
2019-02-10T13:21:06.136Z,10.18
2019-02-10T13:23:39.423Z,10.15
2019-02-10T13:26:12.731Z,10.22
2019-02-10T13:28:46.023Z,10.48
2019-02-10T13:31:21.349Z,10.46
2019-02-10T13:33:57.405Z,10.52
2019-02-10T13:36:30.664Z,10.55
2019-02-10T13:39:05.351Z,10.62
2019-02-10T13:41:37.619Z,10.64
2019-02-10T13:44:10.961Z,10.61
2019-02-10T13:46:44.327Z,10.65
2019-02-10T13:49:17.585Z,10.68
2019-02-10T13:51:50.890Z,10.64
2019-02-10T13:54:25.231Z,10.63
2019-02-10T13:56:59.018Z,10.63
2019-02-10T13:59:32.311Z,10.57
2019-02-10T14:02:05.613Z,10.49
2019-02-10T14:04:38.890Z,10.40
2019-02-10T14:07:12.267Z,10.38
2019-02-10T14:09:46.594Z,10.35
2019-02-10T14:12:19.981Z,10.33
2019-02-10T14:14:53.247Z,10.28
2019-02-10T14:17:26.571Z,10.22
2019-02-10T14:19:59.833Z,10.13
2019-02-10T14:22:33.182Z,10.08
2019-02-10T14:25:07.228Z,10.01
2019-02-10T14:27:41.403Z,9.84
2019-02-10T14:30:24.977Z,9.73
2019-02-10T14:32:58.419Z,9.52
2019-02-10T14:35:31.701Z,9.31
2019-02-10T14:38:05.117Z,9.15
2019-02-10T14:40:38.388Z,9.01
2019-02-10T14:43:11.822Z,8.91
2019-02-10T14:45:45.125Z,8.79
2019-02-10T14:48:18.547Z,8.73
2019-02-10T14:50:51.872Z,8.61
2019-02-10T14:53:25.793Z,8.56
2019-02-10T14:55:59.459Z,8.34
2019-02-10T14:58:32.806Z,8.26
2019-02-10T15:01:06.096Z,8.21
2019-02-10T15:03:39.389Z,8.11
2019-02-10T15:06:12.755Z,7.95
2019-02-10T15:08:46.101Z,8.02
2019-02-10T15:11:19.483Z,7.96
2019-02-10T15:13:52.847Z,7.92
2019-02-10T15:16:26.176Z,7.99
2019-02-10T15:18:59.479Z,7.95
2019-02-10T15:21:32.787Z,7.96
2019-02-10T15:24:06.142Z,8.01
2019-02-10T15:26:39.396Z,8.08
2019-02-10T15:29:13.563Z,8.08
2019-02-10T15:31:46.868Z,8.02
2019-02-10T15:34:20.347Z,8.12
2019-02-10T15:36:53.638Z,8.10
2019-02-10T15:39:26.952Z,8.11
2019-02-10T15:42:09.301Z,8.17
2019-02-10T15:44:36.912Z,8.15
2019-02-10T15:47:10.201Z,8.18
2019-02-10T15:49:43.552Z,8.16
2019-02-10T15:52:16.842Z,8.27
2019-02-10T15:54:51.828Z,8.39
2019-02-10T15:57:25.170Z,8.34
2019-02-10T15:59:58.435Z,8.26
2019-02-10T16:02:32.029Z,8.24
2019-02-10T16:05:06.087Z,8.26
2019-02-10T16:07:41.697Z,8.25
2019-02-10T16:10:15.049Z,8.31
2019-02-10T16:12:50.344Z,8.33
2019-02-10T16:15:23.617Z,8.25
2019-02-10T16:17:56.904Z,8.30
2019-02-10T16:20:30.199Z,8.39
2019-02-10T16:23:03.533Z,8.31
2019-02-10T16:25:36.835Z,8.30
2019-02-10T16:28:10.181Z,8.22
2019-02-10T16:30:43.529Z,8.22
2019-02-10T16:33:16.839Z,8.21
2019-02-10T16:35:50.110Z,8.20
2019-02-10T16:38:23.533Z,8.27
2019-02-10T16:40:56.805Z,8.16
2019-02-10T16:43:30.663Z,8.22
2019-02-10T16:46:03.943Z,8.14
2019-02-10T16:48:37.786Z,8.14
2019-02-10T16:51:11.063Z,8.19
2019-02-10T16:53:44.389Z,8.18
2019-02-10T16:56:17.640Z,8.17
2019-02-10T16:58:51.938Z,8.07
2019-02-10T17:01:25.244Z,8.06
2019-02-10T17:03:58.542Z,8.26
2019-02-10T17:06:31.835Z,8.18
2019-02-10T17:09:06.906Z,8.23
2019-02-10T17:11:40.219Z,8.21
2019-02-10T17:14:13.528Z,8.16
2019-02-10T17:16:46.825Z,8.10
2019-02-10T17:19:20.139Z,8.09
2019-02-10T17:21:53.497Z,8.03
2019-02-10T17:24:28.038Z,7.85
2019-02-10T17:27:01.340Z,7.82
2019-02-10T17:29:34.645Z,7.77
2019-02-10T17:32:07.955Z,7.78
2019-02-10T17:34:41.229Z,7.83
2019-02-10T17:37:14.509Z,7.79
2019-02-10T17:39:48.747Z,7.77
2019-02-10T17:42:22.027Z,7.75
2019-02-10T17:44:55.385Z,7.72
2019-02-10T17:47:30.737Z,7.70
2019-02-10T17:50:06.211Z,7.68
2019-02-10T17:52:39.473Z,7.66
2019-02-10T17:55:12.863Z,7.66
2019-02-10T17:57:47.895Z,7.57
2019-02-10T18:00:23.007Z,7.57
2019-02-10T18:02:57.078Z,7.57
2019-02-10T18:05:30.417Z,7.55
2019-02-10T18:08:03.739Z,7.55
2019-02-10T18:10:37.114Z,7.62
2019-02-10T18:13:10.947Z,7.59
2019-02-10T18:15:58.075Z,7.52
2019-02-10T18:18:42.004Z,7.56
2019-02-10T18:21:17.051Z,7.51
2019-02-10T18:23:54.743Z,7.51
2019-02-10T18:26:29.792Z,7.43
2019-02-10T18:29:04.722Z,7.41
2019-02-10T18:31:39.676Z,7.37
2019-02-10T18:34:30.901Z,7.33
2019-02-10T18:37:17.471Z,7.23
2019-02-10T18:39:55.814Z,7.23
2019-02-10T18:42:30.800Z,7.20
2019-02-10T18:45:12.508Z,7.11
2019-02-10T18:47:54.418Z,7.10
2019-02-10T18:50:36.136Z,7.15
2019-02-10T18:53:24.098Z,7.17
2019-02-10T18:56:14.013Z,7.14
2019-02-10T18:58:54.241Z,7.23
2019-02-10T19:01:41.058Z,7.29
2019-02-10T19:04:18.463Z,7.28
2019-02-10T19:06:53.447Z,7.27
2019-02-10T19:09:28.730Z,7.22
2019-02-10T19:12:20.119Z,7.18
2019-02-10T19:15:06.681Z,7.06
2019-02-10T19:17:50.618Z,6.92
2019-02-10T19:20:28.287Z,6.87
2019-02-10T19:23:18.491Z,6.83
2019-02-10T19:26:05.657Z,7.05
2019-02-10T19:28:56.885Z,7.07
2019-02-10T19:31:37.370Z,6.96
2019-02-10T19:34:18.372Z,7.07
2019-02-10T19:36:53.301Z,7.01
2019-02-10T19:39:40.356Z,7.14
2019-02-10T19:42:18.036Z,7.12
2019-02-10T19:45:10.998Z,7.10
2019-02-10T19:48:01.828Z,7.14
2019-02-10T19:50:39.323Z,7.24
2019-02-10T19:53:14.241Z,7.17
2019-02-10T19:55:49.199Z,7.14
2019-02-10T19:58:24.117Z,7.17
2019-02-10T20:01:15.587Z,7.11
2019-02-10T20:03:59.041Z,7.04
2019-02-10T20:06:34.486Z,7.01
2019-02-10T20:09:21.403Z,6.96
2019-02-10T20:12:03.881Z,6.88
2019-02-10T20:14:38.395Z,6.86
2019-02-10T20:17:13.485Z,6.84
2019-02-10T20:20:03.559Z,6.78
2019-02-10T20:22:38.463Z,6.74
2019-02-10T20:25:22.485Z,6.69
2019-02-10T20:28:13.623Z,6.73
2019-02-10T20:30:52.396Z,6.68
2019-02-10T20:33:30.396Z,6.64
2019-02-10T20:36:08.529Z,6.60
2019-02-10T20:38:49.489Z,6.55
2019-02-10T20:41:28.801Z,6.39
2019-02-10T20:44:23.972Z,6.28
2019-02-10T20:47:04.914Z,6.27
2019-02-10T20:49:45.814Z,6.18
2019-02-10T20:52:30.304Z,6.17
2019-02-10T20:55:08.362Z,6.15
2019-02-10T20:57:49.479Z,6.18
2019-02-10T21:00:26.431Z,6.05
2019-02-10T21:03:03.802Z,6.03
2019-02-10T21:05:38.736Z,6.05
2019-02-10T21:08:16.343Z,5.97
2019-02-10T21:10:56.988Z,5.95
2019-02-10T21:13:31.922Z,5.97
2019-02-10T21:16:12.288Z,6.01
2019-02-10T21:19:02.047Z,6.08
2019-02-10T21:21:40.191Z,6.08
2019-02-10T21:24:18.237Z,6.09
2019-02-10T21:27:11.562Z,6.11
2019-02-10T21:29:52.310Z,6.13
2019-02-10T21:32:27.430Z,6.02
2019-02-10T21:35:02.447Z,6.04
2019-02-10T21:37:38.344Z,6.03
2019-02-10T21:40:15.973Z,5.99
2019-02-10T21:42:50.888Z,5.90
2019-02-10T21:45:31.452Z,5.87
2019-02-10T21:48:09.079Z,5.91
2019-02-10T21:50:42.390Z,5.83
2019-02-10T21:53:17.196Z,5.82
2019-02-10T21:55:52.887Z,5.88
2019-02-10T21:58:26.170Z,5.81
2019-02-10T22:00:59.471Z,5.73
2019-02-10T22:03:32.762Z,5.82
2019-02-10T22:06:06.045Z,5.85
2019-02-10T22:08:40.611Z,5.87
2019-02-10T22:11:13.889Z,5.82
2019-02-10T22:13:47.173Z,5.80
2019-02-10T22:16:21.482Z,5.88
2019-02-10T22:18:54.821Z,5.87
2019-02-10T22:21:28.127Z,5.80
2019-02-10T22:24:02.909Z,5.81
2019-02-10T22:26:37.838Z,5.73
2019-02-10T22:29:11.109Z,5.70
2019-02-10T22:31:44.404Z,5.69
2019-02-10T22:34:17.688Z,5.68
2019-02-10T22:36:50.969Z,5.61
2019-02-10T22:39:24.272Z,5.66
2019-02-10T22:41:57.553Z,5.71
2019-02-10T22:44:30.832Z,5.67
2019-02-10T22:47:04.172Z,5.70
2019-02-10T22:49:37.465Z,5.74
2019-02-10T22:52:10.831Z,5.73
2019-02-10T22:54:44.152Z,5.70
2019-02-10T22:57:17.457Z,5.69
2019-02-10T22:59:51.483Z,5.62
2019-02-10T23:02:24.794Z,5.67
2019-02-10T23:04:58.072Z,5.71
2019-02-10T23:07:31.342Z,5.65
2019-02-10T23:10:05.243Z,5.56
2019-02-10T23:12:38.538Z,5.56
2019-02-10T23:15:11.832Z,5.57
2019-02-10T23:17:46.671Z,5.53
2019-02-10T23:20:20.230Z,5.52
2019-02-10T23:22:53.520Z,5.48
2019-02-10T23:25:26.797Z,5.52
2019-02-10T23:28:00.117Z,5.48
2019-02-10T23:30:33.391Z,5.47
2019-02-10T23:33:06.833Z,5.48
2019-02-10T23:35:40.096Z,5.51
2019-02-10T23:38:13.368Z,5.48
2019-02-10T23:40:46.653Z,5.45
2019-02-10T23:43:20.722Z,5.43
2019-02-10T23:45:53.988Z,5.47
2019-02-10T23:48:27.310Z,5.46
2019-02-10T23:51:00.591Z,5.44
2019-02-10T23:53:33.914Z,5.41
2019-02-10T23:56:08.822Z,5.43
2019-02-10T23:58:42.096Z,5.44
